Terminal Aerodrome Forecast
Issued by NWS Northern Indiana

Home | Current Version | Previous Version | Graphics & Text | Print | Product List | Glossary On
Versions: 1 2 3 4 5 6 7 8 9 10 11
000
FTUS43 KIWX 171700
TAFFWA
TAF
KFWA 171722Z 1718/1818 21014G21KT P6SM FEW050 BKN200
     FM180100 20007KT P6SM SCT040 BKN200
     FM181000 32005KT P6SM VCSH BKN030=

USA.gov is the U.S. government's official web portal to all federal, state and local government web resources and services.